createdAt,value
2019-03-22T00:02:23.077Z,100392.45
2019-03-22T00:04:53.290Z,100396.30
2019-03-22T00:07:23.650Z,100404.70
2019-03-22T00:09:53.818Z,100406.80
2019-03-22T00:12:23.974Z,100407.16
2019-03-22T00:14:54.207Z,100409.81
2019-03-22T00:17:24.416Z,100406.04
2019-03-22T00:19:54.622Z,100403.89
2019-03-22T00:22:24.767Z,100405.80
2019-03-22T00:24:54.939Z,100404.75
2019-03-22T00:27:25.116Z,100410.58
2019-03-22T00:29:55.283Z,100411.03
2019-03-22T00:32:25.497Z,100422.56
2019-03-22T00:34:55.802Z,100411.08
2019-03-22T00:37:26.112Z,100410.02
2019-03-22T00:39:56.336Z,100417.22
2019-03-22T00:42:26.460Z,100418.41
2019-03-22T00:44:56.658Z,100418.20
2019-03-22T00:47:26.851Z,100425.48
2019-03-22T00:49:57.027Z,100426.40
2019-03-22T00:52:27.264Z,100422.05
2019-03-22T00:54:57.429Z,100428.16
2019-03-22T00:57:28.724Z,100423.20
2019-03-22T00:59:59.303Z,100425.65
2019-03-22T01:02:29.477Z,100422.59
2019-03-22T01:04:59.817Z,100420.91
2019-03-22T01:07:29.983Z,100412.67
2019-03-22T01:10:00.358Z,100410.95
2019-03-22T01:12:30.544Z,100413.06
2019-03-22T01:15:00.694Z,100414.55
2019-03-22T01:17:30.919Z,100415.56
2019-03-22T01:20:01.033Z,100408.14
2019-03-22T01:22:31.186Z,100407.84
2019-03-22T01:25:01.446Z,100414.50
2019-03-22T01:27:39.766Z,100416.05
2019-03-22T01:30:03.791Z,100412.82
2019-03-22T01:32:33.973Z,100403.97
2019-03-22T01:35:04.232Z,100401.17
2019-03-22T01:37:34.411Z,100398.78
2019-03-22T01:40:04.888Z,100398.86
2019-03-22T01:42:36.068Z,100400.58
2019-03-22T01:45:07.933Z,100400.77
2019-03-22T01:47:38.293Z,100401.25
2019-03-22T01:50:10.299Z,100402.24
2019-03-22T01:52:41.003Z,100403.41
2019-03-22T01:55:11.303Z,100398.25
2019-03-22T01:57:52.395Z,100403.95
2019-03-22T02:00:13.795Z,100402.80
2019-03-22T02:02:44.040Z,100405.26
2019-03-22T02:05:15.905Z,100407.74
2019-03-22T02:07:46.157Z,100413.19
2019-03-22T02:10:16.378Z,100401.05
2019-03-22T02:12:46.529Z,100411.83
2019-03-22T02:15:16.979Z,100414.80
2019-03-22T02:17:47.138Z,100413.45
2019-03-22T02:20:17.627Z,100421.09
2019-03-22T02:22:48.001Z,100418.48
2019-03-22T02:25:18.163Z,100416.64
2019-03-22T02:27:48.329Z,100423.09
2019-03-22T02:30:18.687Z,100419.33
2019-03-22T02:32:49.146Z,100417.98
2019-03-22T02:35:28.265Z,100422.22
2019-03-22T02:37:51.196Z,100426.89
2019-03-22T02:40:21.360Z,100424.48
2019-03-22T02:42:51.527Z,100420.65
2019-03-22T02:45:21.728Z,100431.04
2019-03-22T02:47:51.959Z,100423.80
2019-03-22T02:50:22.141Z,100421.65
2019-03-22T02:52:52.278Z,100423.63
2019-03-22T02:55:22.454Z,100426.08
2019-03-22T02:57:52.667Z,100426.98
2019-03-22T03:00:22.810Z,100434.53
2019-03-22T03:02:53.094Z,100427.05
2019-03-22T03:05:23.248Z,100397.09
2019-03-22T03:07:53.525Z,100423.16
2019-03-22T03:10:23.724Z,100426.69
2019-03-22T03:12:53.884Z,100422.59
2019-03-22T03:15:24.035Z,100423.73
2019-03-22T03:17:54.222Z,100399.91
2019-03-22T03:20:24.406Z,100426.39
2019-03-22T03:22:54.676Z,100429.17
2019-03-22T03:25:24.883Z,100426.06
2019-03-22T03:27:55.028Z,100416.08
2019-03-22T03:30:25.250Z,100405.62
2019-03-22T03:32:55.456Z,100409.81
2019-03-22T03:35:25.652Z,100402.31
2019-03-22T03:37:55.823Z,100400.53
2019-03-22T03:40:25.957Z,100399.05
2019-03-22T03:42:56.323Z,100397.50
2019-03-22T03:45:33.526Z,100396.50
2019-03-22T03:48:04.901Z,100398.77
2019-03-22T03:50:35.164Z,100390.64
2019-03-22T03:53:05.694Z,100396.55
2019-03-22T03:55:36.074Z,100385.36
2019-03-22T03:58:06.582Z,100388.36
2019-03-22T04:00:37.099Z,100389.45
2019-03-22T04:03:07.392Z,100393.95
2019-03-22T04:05:37.610Z,100398.16
2019-03-22T04:08:07.873Z,100412.34
2019-03-22T04:10:38.124Z,100412.55
2019-03-22T04:13:08.350Z,100419.52
2019-03-22T04:15:38.487Z,100415.10
2019-03-22T04:18:08.692Z,100422.31
2019-03-22T04:20:38.849Z,100421.30
2019-03-22T04:23:08.951Z,100429.52
2019-03-22T04:25:39.105Z,100431.51
2019-03-22T04:28:09.273Z,100427.83
2019-03-22T04:30:39.496Z,100425.91
2019-03-22T04:33:09.767Z,100424.77
2019-03-22T04:35:39.909Z,100429.73
2019-03-22T04:38:10.101Z,100430.35
2019-03-22T04:40:40.249Z,100434.73
2019-03-22T04:43:10.440Z,100440.41
2019-03-22T04:45:41.892Z,100439.33
2019-03-22T04:48:30.509Z,100440.59
2019-03-22T04:51:03.758Z,100438.78
2019-03-22T04:53:44.722Z,100444.64
2019-03-22T04:56:18.278Z,100445.91
2019-03-22T04:58:50.759Z,100447.25
2019-03-22T05:01:23.852Z,100445.27
2019-03-22T05:03:54.886Z,100442.94
2019-03-22T05:06:25.554Z,100449.42
2019-03-22T05:08:58.061Z,100447.78
2019-03-22T05:11:29.868Z,100452.56
2019-03-22T05:14:02.116Z,100444.36
2019-03-22T05:16:34.183Z,100449.45
2019-03-22T05:19:04.963Z,100454.54
2019-03-22T05:21:36.640Z,100456.23
2019-03-22T05:24:08.456Z,100452.49
2019-03-22T05:26:40.837Z,100450.05
2019-03-22T05:29:14.004Z,100448.77
2019-03-22T05:32:15.907Z,100455.92
2019-03-22T05:34:46.183Z,100459.74
2019-03-22T05:37:16.538Z,100460.01
2019-03-22T05:39:46.720Z,100454.88
2019-03-22T05:42:16.887Z,100462.41
2019-03-22T05:44:47.094Z,100460.03
2019-03-22T05:47:17.237Z,100462.45
2019-03-22T05:49:49.354Z,100457.33
2019-03-22T05:52:19.546Z,100462.11
2019-03-22T05:54:52.463Z,100431.93
2019-03-22T05:57:23.248Z,100468.85
2019-03-22T05:59:54.345Z,100462.08
2019-03-22T06:02:25.948Z,100467.75
2019-03-22T06:04:57.170Z,100464.89
2019-03-22T06:07:28.312Z,100458.13
2019-03-22T06:09:58.947Z,100459.43
2019-03-22T06:12:29.806Z,100458.38
2019-03-22T06:15:01.259Z,100459.48
2019-03-22T06:17:34.942Z,100457.23
2019-03-22T06:20:05.802Z,100443.91
2019-03-22T06:22:36.679Z,100447.83
2019-03-22T06:25:08.144Z,100446.73
2019-03-22T06:27:40.761Z,100454.85
2019-03-22T06:30:12.915Z,100447.75
2019-03-22T06:32:46.720Z,100445.79
2019-03-22T06:35:17.450Z,100445.63
2019-03-22T06:37:49.079Z,100444.52
2019-03-22T06:40:22.120Z,100438.28
2019-03-22T06:42:52.478Z,100447.67
2019-03-22T06:45:22.891Z,100435.03
2019-03-22T06:47:53.501Z,100431.27
2019-03-22T06:50:23.984Z,100440.17
2019-03-22T06:53:02.239Z,100435.86
2019-03-22T06:55:36.439Z,100432.70
2019-03-22T06:58:07.903Z,100436.74
2019-03-22T07:00:41.011Z,100435.33
2019-03-22T07:03:12.519Z,100427.50
2019-03-22T07:05:43.612Z,100422.00
2019-03-22T07:08:14.986Z,100427.88
2019-03-22T07:10:46.451Z,100431.00
2019-03-22T07:13:18.369Z,100426.83
2019-03-22T07:15:49.896Z,100429.99
2019-03-22T07:18:22.475Z,100429.12
2019-03-22T07:20:54.514Z,100430.91
2019-03-22T07:23:26.634Z,100424.11
2019-03-22T07:25:57.643Z,100430.14
2019-03-22T07:28:29.469Z,100425.91
2019-03-22T07:31:01.499Z,100423.93
2019-03-22T07:33:32.905Z,100424.95
2019-03-22T07:36:04.061Z,100428.50
2019-03-22T07:38:35.963Z,100429.01
2019-03-22T07:41:08.179Z,100419.27
2019-03-22T07:43:38.921Z,100420.41
2019-03-22T07:52:06.815Z,100410.31
2019-03-22T07:54:39.134Z,100417.64
2019-03-22T07:57:12.125Z,100412.53
2019-03-22T07:59:44.794Z,100407.55
2019-03-22T08:03:11.482Z,100411.06
2019-03-22T08:05:50.960Z,100405.83
2019-03-22T08:08:14.642Z,100398.47
2019-03-22T08:10:45.712Z,100404.04
2019-03-22T08:13:18.239Z,100396.64
2019-03-22T08:15:49.085Z,100393.00
2019-03-22T08:18:20.467Z,100396.82
2019-03-22T08:20:51.150Z,100391.63
2019-03-22T08:23:22.945Z,100389.19
2019-03-22T08:25:55.515Z,100393.28
2019-03-22T08:28:27.694Z,100395.31
2019-03-22T08:30:59.488Z,100394.84
2019-03-22T08:33:30.907Z,100390.77
2019-03-22T08:36:03.002Z,100392.63
2019-03-22T08:38:36.737Z,100381.84
2019-03-22T08:41:08.600Z,100385.70
2019-03-22T08:43:40.423Z,100384.55
2019-03-22T08:46:10.882Z,100376.07
2019-03-22T08:48:41.126Z,100372.48
2019-03-22T08:51:11.375Z,100371.58
2019-03-22T08:53:54.357Z,100362.63
2019-03-22T08:56:16.301Z,100363.44
2019-03-22T08:58:47.135Z,100365.22
2019-03-22T09:01:17.287Z,100356.27
2019-03-22T09:03:47.436Z,100353.09
2019-03-22T09:06:17.953Z,100356.17
2019-03-22T09:08:48.444Z,100348.63
2019-03-22T09:11:23.931Z,100341.52
2019-03-22T09:13:54.760Z,100337.59
2019-03-22T09:16:26.962Z,100337.78
2019-03-22T09:18:57.437Z,100334.41
2019-03-22T09:21:28.366Z,100321.75
2019-03-22T09:24:00.143Z,100325.29
2019-03-22T09:26:31.082Z,100315.31
2019-03-22T09:29:02.383Z,100313.57
2019-03-22T09:31:33.714Z,100310.92
2019-03-22T09:34:05.015Z,100309.45
2019-03-22T09:36:36.937Z,100305.17
2019-03-22T09:39:09.820Z,100303.44
2019-03-22T09:41:41.246Z,100296.81
2019-03-22T09:44:12.978Z,100296.52
2019-03-22T09:46:44.013Z,100297.36
2019-03-22T09:49:15.388Z,100299.58
2019-03-22T09:51:45.519Z,100291.92
2019-03-22T09:54:15.727Z,100284.50
2019-03-22T09:56:47.371Z,100276.98
2019-03-22T09:59:17.984Z,100281.00
2019-03-22T10:01:48.190Z,100285.73
2019-03-22T10:04:18.383Z,100288.58
2019-03-22T10:06:52.948Z,100280.64
2019-03-22T10:09:26.303Z,100278.64
2019-03-22T10:11:57.606Z,100271.89
2019-03-22T10:14:31.371Z,100266.29
2019-03-22T10:17:03.064Z,100264.94
2019-03-22T10:19:34.823Z,100263.47
2019-03-22T10:22:05.010Z,100253.81
2019-03-22T10:24:35.210Z,100250.22
2019-03-22T10:27:05.568Z,100247.08
2019-03-22T10:29:35.840Z,100251.69
2019-03-22T10:32:06.137Z,100246.56
2019-03-22T10:34:39.569Z,100244.31
2019-03-22T10:37:08.229Z,100243.89
2019-03-22T10:39:38.383Z,100230.25
2019-03-22T10:42:08.557Z,100231.24
2019-03-22T10:44:39.540Z,100223.09
2019-03-22T10:47:09.756Z,100220.28
2019-03-22T10:49:41.872Z,100222.89
2019-03-22T10:52:11.748Z,100218.05
2019-03-22T10:54:41.960Z,100208.95
2019-03-22T10:57:12.169Z,100208.30
2019-03-22T10:59:42.288Z,100202.88
2019-03-22T11:02:12.861Z,100194.94
2019-03-22T11:04:43.026Z,100193.66
2019-03-22T11:07:13.317Z,100193.27
2019-03-22T11:09:43.590Z,100192.21
2019-03-22T11:12:13.803Z,100177.33
2019-03-22T11:14:45.698Z,100176.55
2019-03-22T11:17:16.006Z,100176.00
2019-03-22T11:19:46.117Z,100166.69
2019-03-22T11:22:16.334Z,100165.87
2019-03-22T11:24:46.469Z,100158.32
2019-03-22T11:27:16.639Z,100159.23
2019-03-22T11:29:46.814Z,100147.82
2019-03-22T11:32:17.002Z,100136.56
2019-03-22T11:34:47.175Z,100132.72
2019-03-22T11:37:17.467Z,100132.83
2019-03-22T11:39:47.588Z,100126.91
2019-03-22T11:42:17.822Z,100122.19
2019-03-22T11:44:47.961Z,100112.58
2019-03-22T11:47:18.255Z,100107.38
2019-03-22T11:49:48.421Z,100111.85
2019-03-22T11:52:18.562Z,100102.86
2019-03-22T11:54:48.824Z,100098.98
2019-03-22T11:57:18.973Z,100093.57
2019-03-22T11:59:49.158Z,100090.07
2019-03-22T12:02:22.617Z,100089.71
2019-03-22T12:04:51.116Z,100090.81
2019-03-22T12:07:21.308Z,100083.94
2019-03-22T12:09:51.556Z,100082.75
2019-03-22T12:12:21.767Z,100082.61
2019-03-22T12:14:51.958Z,100075.95
2019-03-22T12:17:22.141Z,100075.20
2019-03-22T12:19:52.812Z,100069.58
2019-03-22T12:22:22.993Z,100070.77
2019-03-22T12:24:53.230Z,100055.64
2019-03-22T12:27:23.395Z,100040.29
2019-03-22T12:29:53.519Z,100058.22
2019-03-22T12:32:31.980Z,100045.13
2019-03-22T12:34:55.757Z,100043.95
2019-03-22T12:37:25.923Z,100053.28
2019-03-22T12:39:56.087Z,100049.25
2019-03-22T12:42:26.221Z,100048.81
2019-03-22T12:44:56.432Z,100044.90
2019-03-22T12:47:26.555Z,100048.16
2019-03-22T12:49:56.760Z,100042.80
2019-03-22T12:52:27.018Z,100034.92
2019-03-22T12:54:57.194Z,100035.02
2019-03-22T12:57:27.349Z,100027.67
2019-03-22T12:59:57.549Z,100020.41
2019-03-22T13:02:27.847Z,100021.13
2019-03-22T13:04:58.675Z,100012.76
2019-03-22T13:07:28.818Z,100009.95
2019-03-22T13:09:58.997Z,100013.31
2019-03-22T13:12:29.157Z,100007.90
2019-03-22T13:14:59.366Z,100002.59
2019-03-22T13:17:29.489Z,99999.02
2019-03-22T13:19:59.702Z,99998.96
2019-03-22T13:22:29.888Z,99993.95
2019-03-22T13:25:00.122Z,99986.77
2019-03-22T13:27:30.548Z,99977.86
2019-03-22T13:30:00.758Z,99980.75
2019-03-22T13:32:30.995Z,99975.57
2019-03-22T13:35:01.194Z,99972.61
2019-03-22T13:37:31.338Z,99974.95
2019-03-22T13:40:01.573Z,99967.56
2019-03-22T13:42:31.845Z,99960.19
2019-03-22T13:45:02.031Z,99959.07
2019-03-22T13:47:32.246Z,99956.23
2019-03-22T13:50:02.452Z,99953.16
2019-03-22T13:52:32.678Z,99947.17
2019-03-22T13:55:02.937Z,99942.88
2019-03-22T13:57:33.076Z,99948.55
2019-03-22T14:00:03.264Z,99938.91
2019-03-22T14:02:35.410Z,99940.06
2019-03-22T14:05:06.652Z,99939.88
2019-03-22T14:07:36.910Z,99936.73
2019-03-22T14:10:07.415Z,99936.11
2019-03-22T14:12:37.723Z,99927.23
2019-03-22T14:15:08.263Z,99930.55
2019-03-22T14:17:38.525Z,99933.48
2019-03-22T14:20:11.557Z,99920.68
2019-03-22T14:25:09.206Z,99921.62
2019-03-22T14:27:39.356Z,99917.30
2019-03-22T14:30:09.897Z,99917.81
2019-03-22T14:32:40.180Z,99914.50
2019-03-22T14:35:10.407Z,99909.16
2019-03-22T14:37:40.596Z,99918.42
2019-03-22T14:40:15.603Z,99909.81
2019-03-22T14:42:42.691Z,99906.58
2019-03-22T14:45:13.534Z,99903.41
2019-03-22T14:47:43.716Z,99901.54
2019-03-22T14:50:14.138Z,99891.91
2019-03-22T14:52:44.328Z,99894.53
2019-03-22T14:55:16.119Z,99889.87
2019-03-22T14:57:49.920Z,99889.03
2019-03-22T15:00:18.498Z,99890.52
2019-03-22T15:02:48.802Z,99887.84
2019-03-22T15:05:19.011Z,99890.61
2019-03-22T15:07:49.232Z,99889.67
2019-03-22T15:10:19.499Z,99896.46
2019-03-22T15:12:49.979Z,99894.26
2019-03-22T15:15:37.744Z,99895.90
2019-03-22T15:18:19.322Z,99896.73
2019-03-22T15:21:14.439Z,99898.36
2019-03-22T15:24:13.090Z,99900.09
2019-03-22T15:27:19.568Z,99897.96
2019-03-22T15:30:04.880Z,99898.36
2019-03-22T15:33:02.974Z,99904.94
2019-03-22T15:35:54.932Z,99901.03
2019-03-22T15:39:02.580Z,99896.30
2019-03-22T15:41:32.845Z,99897.41
2019-03-22T15:44:03.044Z,99897.15
2019-03-22T15:46:33.317Z,99895.83
2019-03-22T15:49:03.503Z,99897.13
2019-03-22T15:51:33.672Z,99896.69
2019-03-22T15:54:03.805Z,99897.66
2019-03-22T15:56:33.943Z,99898.18
2019-03-22T15:59:04.221Z,99898.11
2019-03-22T16:01:34.354Z,99897.17
2019-03-22T16:04:04.663Z,99898.74
2019-03-22T16:06:34.808Z,99895.51
2019-03-22T16:09:06.757Z,99892.24
2019-03-22T16:11:36.931Z,99893.13
2019-03-22T16:14:07.360Z,99894.64
2019-03-22T16:16:37.645Z,99896.11
2019-03-22T16:19:07.848Z,99897.98
2019-03-22T16:21:37.953Z,99897.69
2019-03-22T16:24:08.120Z,99900.18
2019-03-22T16:26:38.266Z,99900.82
2019-03-22T16:29:08.351Z,99899.34
2019-03-22T16:31:38.510Z,99890.26
2019-03-22T16:34:08.640Z,99894.90
2019-03-22T16:36:38.761Z,99892.14
2019-03-22T16:39:10.162Z,99881.05
2019-03-22T16:41:40.315Z,99884.22
2019-03-22T16:44:10.487Z,99879.87
2019-03-22T16:46:40.614Z,99878.39
2019-03-22T16:49:10.763Z,99883.70
2019-03-22T16:51:40.884Z,99878.69
2019-03-22T16:54:11.061Z,99878.20
2019-03-22T16:56:41.165Z,99879.45
2019-03-22T16:59:11.314Z,99878.87
2019-03-22T17:01:41.437Z,99878.23
2019-03-22T17:04:11.570Z,99880.46
2019-03-22T17:06:41.771Z,99882.41
2019-03-22T17:09:11.893Z,99882.52
2019-03-22T17:11:42.017Z,99878.61
2019-03-22T17:14:12.161Z,99878.98
2019-03-22T17:16:42.302Z,99870.22
2019-03-22T17:19:12.474Z,99871.20
2019-03-22T17:21:42.598Z,99871.87
2019-03-22T17:24:12.734Z,99874.22
2019-03-22T17:26:42.950Z,99877.56
2019-03-22T17:29:13.055Z,99877.98
2019-03-22T17:31:43.325Z,99883.94
2019-03-22T17:34:14.416Z,99882.18
2019-03-22T17:36:44.686Z,99878.75
2019-03-22T17:39:14.839Z,99880.94
2019-03-22T17:41:45.067Z,99878.94
2019-03-22T17:44:16.004Z,99876.86
2019-03-22T17:46:46.220Z,99886.70
2019-03-22T17:49:16.393Z,99888.23
2019-03-22T17:51:46.581Z,99888.97
2019-03-22T17:54:16.711Z,99894.42
2019-03-22T17:56:46.876Z,99887.32
2019-03-22T17:59:17.056Z,99890.36
2019-03-22T18:01:47.250Z,99890.82
2019-03-22T18:04:24.147Z,99885.85
2019-03-22T18:06:49.409Z,99894.59
2019-03-22T18:09:19.616Z,99895.25
2019-03-22T18:11:49.807Z,99900.59
2019-03-22T18:14:20.033Z,99899.94
2019-03-22T18:16:50.162Z,99904.41
2019-03-22T18:19:20.351Z,99902.70
2019-03-22T18:21:50.457Z,99900.73
2019-03-22T18:24:20.620Z,99909.27
2019-03-22T18:26:50.812Z,99909.83
2019-03-22T18:29:21.012Z,99912.05
2019-03-22T18:31:51.159Z,99905.28
2019-03-22T18:34:21.366Z,99903.89
2019-03-22T18:36:51.571Z,99904.84
2019-03-22T18:39:21.773Z,99904.31
2019-03-22T18:41:51.982Z,99904.89
2019-03-22T18:44:22.086Z,99901.86
2019-03-22T18:46:52.271Z,99901.24
2019-03-22T18:49:22.428Z,99897.41
2019-03-22T18:51:52.662Z,99902.59
2019-03-22T18:54:22.798Z,99901.53
2019-03-22T18:56:52.904Z,99911.73
2019-03-22T18:59:23.100Z,99907.64
2019-03-22T19:01:53.365Z,99906.19
2019-03-22T19:04:23.492Z,99903.10
2019-03-22T19:06:53.615Z,99907.13
2019-03-22T19:09:23.820Z,99901.23
2019-03-22T19:11:54.046Z,99873.28
2019-03-22T19:14:24.215Z,99903.03
2019-03-22T19:16:54.392Z,99901.23
2019-03-22T19:19:24.613Z,99903.97
2019-03-22T19:21:54.808Z,99901.68
2019-03-22T19:24:25.009Z,99897.92
2019-03-22T19:26:55.216Z,99905.78
2019-03-22T19:29:25.478Z,99896.06
2019-03-22T19:31:55.615Z,99909.01
2019-03-22T19:34:25.821Z,99912.80
2019-03-22T19:36:55.989Z,99905.47
2019-03-22T19:39:26.170Z,99904.20
2019-03-22T19:41:56.306Z,99906.65
2019-03-22T19:44:26.526Z,99901.57
2019-03-22T19:46:56.736Z,99900.34
2019-03-22T19:49:26.857Z,99912.75
2019-03-22T19:51:57.061Z,99903.94
2019-03-22T19:54:27.196Z,99906.81
2019-03-22T19:56:57.381Z,99904.08
2019-03-22T19:59:27.542Z,99908.87
2019-03-22T20:01:57.740Z,99900.92
2019-03-22T20:04:27.951Z,99910.03
2019-03-22T20:06:58.213Z,99907.86
2019-03-22T20:09:28.413Z,99907.21
2019-03-22T20:11:58.704Z,99904.79
2019-03-22T20:14:28.980Z,99904.83
2019-03-22T20:16:59.165Z,99902.34
2019-03-22T20:19:29.640Z,99899.75
2019-03-22T20:21:59.864Z,99898.42
2019-03-22T20:24:30.049Z,99900.80
2019-03-22T20:27:00.232Z,99900.72
2019-03-22T20:29:32.497Z,99899.08
2019-03-22T20:32:02.616Z,99907.12
2019-03-22T20:34:32.753Z,99910.98
2019-03-22T20:37:02.938Z,99911.94
2019-03-22T20:39:33.190Z,99910.81
2019-03-22T20:42:03.402Z,99902.77
2019-03-22T20:44:34.330Z,99914.28
2019-03-22T20:47:04.653Z,99913.86
2019-03-22T20:49:35.514Z,99919.52
2019-03-22T20:52:05.759Z,99921.59
2019-03-22T20:54:36.049Z,99924.66
2019-03-22T20:57:06.391Z,99925.07
2019-03-22T20:59:36.645Z,99930.13
2019-03-22T21:02:06.906Z,99927.27
2019-03-22T21:04:37.115Z,99925.59
2019-03-22T21:07:07.351Z,99921.03
2019-03-22T21:09:37.654Z,99923.55
2019-03-22T21:12:07.902Z,99926.09
2019-03-22T21:14:38.832Z,99915.81
2019-03-22T21:17:09.039Z,99917.02
2019-03-22T21:19:39.334Z,99908.77
2019-03-22T21:22:09.954Z,99912.94
2019-03-22T21:24:40.122Z,99918.67
2019-03-22T21:27:15.436Z,99924.61
2019-03-22T21:29:44.447Z,99921.71
2019-03-22T21:32:14.441Z,99931.81
2019-03-22T21:34:44.729Z,99928.62
2019-03-22T21:37:14.857Z,99927.02
2019-03-22T21:39:44.953Z,99936.51
2019-03-22T21:42:15.161Z,99938.03
2019-03-22T21:44:45.322Z,99929.98
2019-03-22T21:47:15.476Z,99935.80
2019-03-22T21:49:45.597Z,99938.59
2019-03-22T21:52:15.811Z,99947.05
2019-03-22T21:54:46.003Z,99940.92
2019-03-22T21:57:16.158Z,99941.77
2019-03-22T21:59:46.306Z,99942.17
2019-03-22T22:02:16.514Z,99941.97
2019-03-22T22:04:46.784Z,99938.77
2019-03-22T22:07:17.022Z,99925.94
2019-03-22T22:09:47.303Z,99924.14
2019-03-22T22:12:17.542Z,99852.41
2019-03-22T22:14:47.764Z,99922.91
2019-03-22T22:17:17.986Z,99924.77
2019-03-22T22:19:48.233Z,99927.36
2019-03-22T22:22:18.383Z,99927.36
2019-03-22T22:24:48.566Z,99925.83
2019-03-22T22:27:18.747Z,99926.25
2019-03-22T22:29:48.943Z,99926.77
2019-03-22T22:32:19.079Z,99927.45
2019-03-22T22:34:49.268Z,99932.83
2019-03-22T22:37:19.511Z,99935.75
2019-03-22T22:39:49.665Z,99935.42
2019-03-22T22:42:19.862Z,99931.36
2019-03-22T22:44:50.108Z,99929.05
2019-03-22T22:47:20.314Z,99933.66
2019-03-22T22:49:50.491Z,99935.22
2019-03-22T22:52:20.667Z,99937.20
2019-03-22T22:54:50.839Z,99933.56
2019-03-22T22:57:21.072Z,99935.27
2019-03-22T22:59:51.205Z,99935.11
2019-03-22T23:02:21.348Z,99944.33
2019-03-22T23:04:51.431Z,99940.89
2019-03-22T23:07:21.611Z,99947.14
2019-03-22T23:09:51.739Z,99942.42
2019-03-22T23:12:21.929Z,99945.59
2019-03-22T23:14:52.167Z,99947.47
2019-03-22T23:17:23.284Z,99948.36
2019-03-22T23:19:53.468Z,99952.09
2019-03-22T23:22:23.708Z,99953.39
2019-03-22T23:24:53.808Z,99958.38
2019-03-22T23:27:23.916Z,99954.16
2019-03-22T23:29:54.113Z,99956.89
2019-03-22T23:32:24.252Z,99949.50
2019-03-22T23:34:59.035Z,99951.15
2019-03-22T23:37:26.276Z,99951.15
2019-03-22T23:39:56.499Z,99952.81
2019-03-22T23:42:26.665Z,99954.13
2019-03-22T23:44:57.051Z,99958.95
2019-03-22T23:47:27.408Z,99961.02
2019-03-22T23:49:57.547Z,99954.95
2019-03-22T23:52:27.748Z,99953.17
2019-03-22T23:54:57.966Z,99950.89
2019-03-22T23:57:28.191Z,99951.72
2019-03-22T23:59:58.355Z,99949.31
